sensor_id;sensor_type;location;lat;lon;timestamp;temperature;humidity
43772;HTU21D;59066;54.782;32.024;2023-03-01T00:00:19;0.34;83.52
43772;HTU21D;59066;54.782;32.024;2023-03-01T00:02:47;0.32;83.06
43772;HTU21D;59066;54.782;32.024;2023-03-01T00:05:14;0.29;82.88
43772;HTU21D;59066;54.782;32.024;2023-03-01T00:07:42;0.29;82.61
43772;HTU21D;59066;54.782;32.024;2023-03-01T00:10:10;0.24;82.18
43772;HTU21D;59066;54.782;32.024;2023-03-01T00:12:38;0.19;81.54
43772;HTU21D;59066;54.782;32.024;2023-03-01T00:15:05;0.17;81.07
43772;HTU21D;59066;54.782;32.024;2023-03-01T00:17:33;0.17;80.82
43772;HTU21D;59066;54.782;32.024;2023-03-01T00:20:01;0.16;80.46
43772;HTU21D;59066;54.782;32.024;2023-03-01T00:22:28;0.15;79.90
43772;HTU21D;59066;54.782;32.024;2023-03-01T00:24:56;0.12;79.60
43772;HTU21D;59066;54.782;32.024;2023-03-01T00:27:23;0.13;79.33
43772;HTU21D;59066;54.782;32.024;2023-03-01T00:29:52;0.12;79.18
43772;HTU21D;59066;54.782;32.024;2023-03-01T00:32:19;0.13;78.94
43772;HTU21D;59066;54.782;32.024;2023-03-01T00:34:47;0.08;78.45
43772;HTU21D;59066;54.782;32.024;2023-03-01T00:37:22;0.07;78.24
43772;HTU21D;59066;54.782;32.024;2023-03-01T00:39:50;0.13;78.33
43772;HTU21D;59066;54.782;32.024;2023-03-01T00:42:17;0.07;78.11
43772;HTU21D;59066;54.782;32.024;2023-03-01T00:44:44;0.04;78.01
43772;HTU21D;59066;54.782;32.024;2023-03-01T00:47:12;0.01;77.39
43772;HTU21D;59066;54.782;32.024;2023-03-01T00:49:41;-0.03;77.17
43772;HTU21D;59066;54.782;32.024;2023-03-01T00:52:08;-0.02;76.98
43772;HTU21D;59066;54.782;32.024;2023-03-01T00:54:35;-0.08;76.59
43772;HTU21D;59066;54.782;32.024;2023-03-01T00:57:03;-0.07;76.57
43772;HTU21D;59066;54.782;32.024;2023-03-01T00:59:30;-0.11;76.09
43772;HTU21D;59066;54.782;32.024;2023-03-01T01:01:58;-0.13;76.23
43772;HTU21D;59066;54.782;32.024;2023-03-01T01:04:26;-0.20;75.62
43772;HTU21D;59066;54.782;32.024;2023-03-01T01:06:53;-0.21;75.46
43772;HTU21D;59066;54.782;32.024;2023-03-01T01:09:21;-0.24;74.92
43772;HTU21D;59066;54.782;32.024;2023-03-01T01:11:50;-0.22;74.70
43772;HTU21D;59066;54.782;32.024;2023-03-01T01:14:19;-0.29;74.06
43772;HTU21D;59066;54.782;32.024;2023-03-01T01:16:48;-0.37;73.71
43772;HTU21D;59066;54.782;32.024;2023-03-01T01:19:15;-0.39;74.17
43772;HTU21D;59066;54.782;32.024;2023-03-01T01:21:43;-0.47;73.88
43772;HTU21D;59066;54.782;32.024;2023-03-01T01:24:12;-0.56;73.44
43772;HTU21D;59066;54.782;32.024;2023-03-01T01:26:39;-0.58;73.48
43772;HTU21D;59066;54.782;32.024;2023-03-01T01:29:07;-0.62;73.55
43772;HTU21D;59066;54.782;32.024;2023-03-01T01:31:38;-0.67;73.69
43772;HTU21D;59066;54.782;32.024;2023-03-01T01:34:08;-0.72;73.66
43772;HTU21D;59066;54.782;32.024;2023-03-01T01:36:35;-0.75;73.54
43772;HTU21D;59066;54.782;32.024;2023-03-01T01:39:03;-0.76;73.81
43772;HTU21D;59066;54.782;32.024;2023-03-01T01:41:31;-0.84;73.45
43772;HTU21D;59066;54.782;32.024;2023-03-01T01:44:28;-0.86;73.74
43772;HTU21D;59066;54.782;32.024;2023-03-01T01:47:18;-0.90;73.54
43772;HTU21D;59066;54.782;32.024;2023-03-01T01:49:49;-0.91;73.19
43772;HTU21D;59066;54.782;32.024;2023-03-01T01:52:25;-0.99;73.19
43772;HTU21D;59066;54.782;32.024;2023-03-01T01:55:05;-1.05;72.43
43772;HTU21D;59066;54.782;32.024;2023-03-01T01:57:58;-1.11;72.49
43772;HTU21D;59066;54.782;32.024;2023-03-01T02:00:28;-1.06;72.45
43772;HTU21D;59066;54.782;32.024;2023-03-01T02:03:07;-1.17;72.23
43772;HTU21D;59066;54.782;32.024;2023-03-01T02:08:28;-1.21;72.00
43772;HTU21D;59066;54.782;32.024;2023-03-01T02:10:59;-1.21;71.57
43772;HTU21D;59066;54.782;32.024;2023-03-01T02:13:28;-1.24;71.57
43772;HTU21D;59066;54.782;32.024;2023-03-01T02:15:56;-1.23;71.84
43772;HTU21D;59066;54.782;32.024;2023-03-01T02:18:23;-1.19;71.82
43772;HTU21D;59066;54.782;32.024;2023-03-01T02:23:39;-1.21;71.38
43772;HTU21D;59066;54.782;32.024;2023-03-01T02:26:25;-1.24;71.64
43772;HTU21D;59066;54.782;32.024;2023-03-01T02:28:55;-1.25;71.38
43772;HTU21D;59066;54.782;32.024;2023-03-01T02:31:22;-1.23;71.66
43772;HTU21D;59066;54.782;32.024;2023-03-01T02:34:14;-1.29;71.45
43772;HTU21D;59066;54.782;32.024;2023-03-01T02:36:51;-1.28;71.62
43772;HTU21D;59066;54.782;32.024;2023-03-01T02:39:27;-1.28;71.74
43772;HTU21D;59066;54.782;32.024;2023-03-01T02:41:56;-1.28;71.77
43772;HTU21D;59066;54.782;32.024;2023-03-01T02:44:25;-1.31;71.74
43772;HTU21D;59066;54.782;32.024;2023-03-01T02:46:56;-1.34;71.81
43772;HTU21D;59066;54.782;32.024;2023-03-01T02:49:29;-1.38;71.71
43772;HTU21D;59066;54.782;32.024;2023-03-01T02:57:23;-1.40;72.05
43772;HTU21D;59066;54.782;32.024;2023-03-01T02:59:51;-1.45;71.77
43772;HTU21D;59066;54.782;32.024;2023-03-01T03:04:48;-1.50;71.55
43772;HTU21D;59066;54.782;32.024;2023-03-01T03:07:15;-1.52;71.51
43772;HTU21D;59066;54.782;32.024;2023-03-01T03:09:43;-1.56;71.56
43772;HTU21D;59066;54.782;32.024;2023-03-01T03:12:12;-1.56;71.57
43772;HTU21D;59066;54.782;32.024;2023-03-01T03:14:39;-1.58;71.49
43772;HTU21D;59066;54.782;32.024;2023-03-01T03:17:06;-1.59;71.68
43772;HTU21D;59066;54.782;32.024;2023-03-01T03:19:34;-1.61;71.50
43772;HTU21D;59066;54.782;32.024;2023-03-01T03:22:01;-1.68;71.65
43772;HTU21D;59066;54.782;32.024;2023-03-01T03:24:29;-1.68;71.74
43772;HTU21D;59066;54.782;32.024;2023-03-01T03:27:05;-1.71;71.64
43772;HTU21D;59066;54.782;32.024;2023-03-01T03:29:33;-1.75;71.51
43772;HTU21D;59066;54.782;32.024;2023-03-01T03:32:01;-1.76;71.68
43772;HTU21D;59066;54.782;32.024;2023-03-01T03:34:28;-1.79;71.52
43772;HTU21D;59066;54.782;32.024;2023-03-01T03:36:57;-1.82;71.48
43772;HTU21D;59066;54.782;32.024;2023-03-01T03:39:26;-1.85;71.63
43772;HTU21D;59066;54.782;32.024;2023-03-01T03:41:54;-1.87;71.62
43772;HTU21D;59066;54.782;32.024;2023-03-01T03:44:22;-1.90;71.71
43772;HTU21D;59066;54.782;32.024;2023-03-01T03:46:49;-1.91;71.74
43772;HTU21D;59066;54.782;32.024;2023-03-01T03:49:17;-1.93;71.74
43772;HTU21D;59066;54.782;32.024;2023-03-01T03:51:45;-1.94;71.80
43772;HTU21D;59066;54.782;32.024;2023-03-01T03:54:13;-1.93;71.91
43772;HTU21D;59066;54.782;32.024;2023-03-01T03:56:40;-1.90;72.07
43772;HTU21D;59066;54.782;32.024;2023-03-01T03:59:08;-1.90;72.15
43772;HTU21D;59066;54.782;32.024;2023-03-01T04:01:38;-1.88;72.22
43772;HTU21D;59066;54.782;32.024;2023-03-01T04:04:05;-1.88;72.21
43772;HTU21D;59066;54.782;32.024;2023-03-01T04:06:34;-1.86;72.32
43772;HTU21D;59066;54.782;32.024;2023-03-01T04:09:02;-1.87;72.33
43772;HTU21D;59066;54.782;32.024;2023-03-01T04:11:29;-1.86;72.30
43772;HTU21D;59066;54.782;32.024;2023-03-01T04:13:58;-1.83;72.57
43772;HTU21D;59066;54.782;32.024;2023-03-01T04:16:26;-1.82;72.64
43772;HTU21D;59066;54.782;32.024;2023-03-01T04:18:54;-1.77;72.42
43772;HTU21D;59066;54.782;32.024;2023-03-01T04:21:21;-1.80;72.66
43772;HTU21D;59066;54.782;32.024;2023-03-01T04:23:49;-1.78;72.50
43772;HTU21D;59066;54.782;32.024;2023-03-01T04:26:19;-1.74;72.70
43772;HTU21D;59066;54.782;32.024;2023-03-01T04:28:47;-1.75;72.43
43772;HTU21D;59066;54.782;32.024;2023-03-01T04:31:17;-1.77;72.43
43772;HTU21D;59066;54.782;32.024;2023-03-01T04:33:53;-1.78;72.45
43772;HTU21D;59066;54.782;32.024;2023-03-01T04:36:24;-1.78;72.35
43772;HTU21D;59066;54.782;32.024;2023-03-01T04:38:52;-1.76;72.77
43772;HTU21D;59066;54.782;32.024;2023-03-01T04:41:21;-1.76;72.51
43772;HTU21D;59066;54.782;32.024;2023-03-01T04:43:49;-1.75;72.50
43772;HTU21D;59066;54.782;32.024;2023-03-01T04:46:19;-1.72;72.38
43772;HTU21D;59066;54.782;32.024;2023-03-01T04:48:47;-1.72;72.32
43772;HTU21D;59066;54.782;32.024;2023-03-01T04:51:15;-1.75;72.06
43772;HTU21D;59066;54.782;32.024;2023-03-01T04:53:43;-1.74;72.03
43772;HTU21D;59066;54.782;32.024;2023-03-01T04:56:12;-1.71;72.30
43772;HTU21D;59066;54.782;32.024;2023-03-01T04:58:41;-1.61;72.35
43772;HTU21D;59066;54.782;32.024;2023-03-01T05:01:14;-1.69;72.26
43772;HTU21D;59066;54.782;32.024;2023-03-01T05:03:48;-1.68;72.32
43772;HTU21D;59066;54.782;32.024;2023-03-01T05:06:16;-1.65;72.06
43772;HTU21D;59066;54.782;32.024;2023-03-01T05:08:44;-1.67;72.19
43772;HTU21D;59066;54.782;32.024;2023-03-01T05:11:12;-1.61;72.25
43772;HTU21D;59066;54.782;32.024;2023-03-01T05:13:40;-1.58;72.09
43772;HTU21D;59066;54.782;32.024;2023-03-01T05:16:08;-1.64;72.03
43772;HTU21D;59066;54.782;32.024;2023-03-01T05:18:39;-1.62;72.17
43772;HTU21D;59066;54.782;32.024;2023-03-01T05:21:09;-1.62;72.12
43772;HTU21D;59066;54.782;32.024;2023-03-01T05:23:37;-1.63;71.75
43772;HTU21D;59066;54.782;32.024;2023-03-01T05:26:05;-1.65;71.69
43772;HTU21D;59066;54.782;32.024;2023-03-01T05:28:42;-1.62;71.93
43772;HTU21D;59066;54.782;32.024;2023-03-01T05:31:09;-1.64;71.86
43772;HTU21D;59066;54.782;32.024;2023-03-01T05:33:38;-1.62;71.50
43772;HTU21D;59066;54.782;32.024;2023-03-01T05:36:09;-1.60;71.45
43772;HTU21D;59066;54.782;32.024;2023-03-01T05:38:40;-1.65;71.55
43772;HTU21D;59066;54.782;32.024;2023-03-01T05:41:14;-1.73;71.26
43772;HTU21D;59066;54.782;32.024;2023-03-01T05:43:44;-1.77;70.75
43772;HTU21D;59066;54.782;32.024;2023-03-01T05:46:12;-1.84;70.78
43772;HTU21D;59066;54.782;32.024;2023-03-01T05:48:40;-1.90;70.49
43772;HTU21D;59066;54.782;32.024;2023-03-01T05:51:07;-1.90;70.80
43772;HTU21D;59066;54.782;32.024;2023-03-01T05:53:35;-1.87;70.86
43772;HTU21D;59066;54.782;32.024;2023-03-01T05:56:03;-1.90;70.76
43772;HTU21D;59066;54.782;32.024;2023-03-01T05:58:31;-1.85;70.90
43772;HTU21D;59066;54.782;32.024;2023-03-01T06:00:59;-1.86;70.58
43772;HTU21D;59066;54.782;32.024;2023-03-01T06:03:26;-1.87;70.34
43772;HTU21D;59066;54.782;32.024;2023-03-01T06:05:57;-1.91;69.91
43772;HTU21D;59066;54.782;32.024;2023-03-01T06:08:25;-1.87;70.09
43772;HTU21D;59066;54.782;32.024;2023-03-01T06:10:54;-1.87;69.78
43772;HTU21D;59066;54.782;32.024;2023-03-01T06:13:22;-1.88;69.49
43772;HTU21D;59066;54.782;32.024;2023-03-01T06:15:50;-1.87;69.28
43772;HTU21D;59066;54.782;32.024;2023-03-01T06:18:19;-1.82;69.17
43772;HTU21D;59066;54.782;32.024;2023-03-01T06:20:52;-1.82;68.81
43772;HTU21D;59066;54.782;32.024;2023-03-01T06:23:21;-1.74;69.02
43772;HTU21D;59066;54.782;32.024;2023-03-01T06:25:48;-1.73;68.46
43772;HTU21D;59066;54.782;32.024;2023-03-01T06:28:16;-1.72;68.14
43772;HTU21D;59066;54.782;32.024;2023-03-01T06:30:44;-1.72;67.94
43772;HTU21D;59066;54.782;32.024;2023-03-01T06:33:11;-1.68;68.01
43772;HTU21D;59066;54.782;32.024;2023-03-01T06:35:38;-1.70;67.52
43772;HTU21D;59066;54.782;32.024;2023-03-01T06:38:06;-1.67;67.59
43772;HTU21D;59066;54.782;32.024;2023-03-01T06:40:34;-1.60;67.75
43772;HTU21D;59066;54.782;32.024;2023-03-01T06:43:02;-1.59;67.51
43772;HTU21D;59066;54.782;32.024;2023-03-01T06:45:29;-1.57;66.97
43772;HTU21D;59066;54.782;32.024;2023-03-01T06:48:04;-1.47;67.12
43772;HTU21D;59066;54.782;32.024;2023-03-01T06:50:32;-1.47;67.00
43772;HTU21D;59066;54.782;32.024;2023-03-01T06:53:00;-1.45;66.69
43772;HTU21D;59066;54.782;32.024;2023-03-01T06:55:28;-1.35;66.87
43772;HTU21D;59066;54.782;32.024;2023-03-01T06:58:00;-1.32;67.01
43772;HTU21D;59066;54.782;32.024;2023-03-01T07:00:28;-1.25;66.90
43772;HTU21D;59066;54.782;32.024;2023-03-01T07:02:58;-1.15;66.88
43772;HTU21D;59066;54.782;32.024;2023-03-01T07:05:27;-1.20;66.11
43772;HTU21D;59066;54.782;32.024;2023-03-01T07:07:54;-1.17;66.18
43772;HTU21D;59066;54.782;32.024;2023-03-01T07:10:23;-1.11;66.36
43772;HTU21D;59066;54.782;32.024;2023-03-01T07:12:54;-0.99;66.49
43772;HTU21D;59066;54.782;32.024;2023-03-01T07:15:21;-0.88;66.41
43772;HTU21D;59066;54.782;32.024;2023-03-01T07:17:49;-0.95;65.81
43772;HTU21D;59066;54.782;32.024;2023-03-01T07:20:18;-0.80;66.43
43772;HTU21D;59066;54.782;32.024;2023-03-01T07:22:49;-0.83;65.93
43772;HTU21D;59066;54.782;32.024;2023-03-01T07:25:17;-0.86;65.97
43772;HTU21D;59066;54.782;32.024;2023-03-01T07:27:49;-0.86;66.09
43772;HTU21D;59066;54.782;32.024;2023-03-01T07:30:17;-0.81;66.33
43772;HTU21D;59066;54.782;32.024;2023-03-01T07:32:45;-0.80;66.13
43772;HTU21D;59066;54.782;32.024;2023-03-01T07:35:15;-0.75;65.94
43772;HTU21D;59066;54.782;32.024;2023-03-01T07:37:45;-0.69;66.30
43772;HTU21D;59066;54.782;32.024;2023-03-01T07:40:15;-0.70;65.74
43772;HTU21D;59066;54.782;32.024;2023-03-01T07:42:42;-0.62;65.82
43772;HTU21D;59066;54.782;32.024;2023-03-01T07:45:10;-0.55;65.39
43772;HTU21D;59066;54.782;32.024;2023-03-01T07:47:38;-0.49;65.11
43772;HTU21D;59066;54.782;32.024;2023-03-01T07:50:05;-0.41;65.15
43772;HTU21D;59066;54.782;32.024;2023-03-01T07:52:33;-0.25;65.04
43772;HTU21D;59066;54.782;32.024;2023-03-01T07:55:00;-0.19;64.85
43772;HTU21D;59066;54.782;32.024;2023-03-01T07:57:28;-0.25;64.12
43772;HTU21D;59066;54.782;32.024;2023-03-01T07:59:55;-0.23;64.47
43772;HTU21D;59066;54.782;32.024;2023-03-01T08:02:23;-0.32;64.25
43772;HTU21D;59066;54.782;32.024;2023-03-01T08:04:50;-0.23;64.76
43772;HTU21D;59066;54.782;32.024;2023-03-01T08:07:17;-0.14;64.67
43772;HTU21D;59066;54.782;32.024;2023-03-01T08:09:45;-0.09;64.18
43772;HTU21D;59066;54.782;32.024;2023-03-01T08:12:12;0.03;64.24
43772;HTU21D;59066;54.782;32.024;2023-03-01T08:14:39;0.17;64.00
43772;HTU21D;59066;54.782;32.024;2023-03-01T08:17:07;0.28;63.44
43772;HTU21D;59066;54.782;32.024;2023-03-01T08:19:34;0.38;63.69
43772;HTU21D;59066;54.782;32.024;2023-03-01T08:22:02;0.61;63.37
43772;HTU21D;59066;54.782;32.024;2023-03-01T08:24:29;0.77;63.82
43772;HTU21D;59066;54.782;32.024;2023-03-01T08:26:57;0.92;62.74
43772;HTU21D;59066;54.782;32.024;2023-03-01T08:29:25;0.80;60.60
43772;HTU21D;59066;54.782;32.024;2023-03-01T08:31:52;0.88;61.83
43772;HTU21D;59066;54.782;32.024;2023-03-01T08:34:20;0.92;62.47
43772;HTU21D;59066;54.782;32.024;2023-03-01T08:36:47;0.80;59.91
43772;HTU21D;59066;54.782;32.024;2023-03-01T08:39:16;0.69;59.77
43772;HTU21D;59066;54.782;32.024;2023-03-01T08:41:44;0.89;61.63
43772;HTU21D;59066;54.782;32.024;2023-03-01T08:44:15;1.07;61.73
43772;HTU21D;59066;54.782;32.024;2023-03-01T08:46:44;0.94;58.23
43772;HTU21D;59066;54.782;32.024;2023-03-01T08:49:18;0.88;58.83
43772;HTU21D;59066;54.782;32.024;2023-03-01T08:51:46;0.93;57.32
43772;HTU21D;59066;54.782;32.024;2023-03-01T08:54:19;0.99;57.42
43772;HTU21D;59066;54.782;32.024;2023-03-01T08:56:48;1.10;58.61
43772;HTU21D;59066;54.782;32.024;2023-03-01T08:59:16;1.24;59.32
43772;HTU21D;59066;54.782;32.024;2023-03-01T09:01:44;1.23;59.40
43772;HTU21D;59066;54.782;32.024;2023-03-01T09:04:12;1.24;57.45
43772;HTU21D;59066;54.782;32.024;2023-03-01T09:06:40;1.31;56.69
43772;HTU21D;59066;54.782;32.024;2023-03-01T09:09:14;1.36;57.39
43772;HTU21D;59066;54.782;32.024;2023-03-01T09:11:42;1.25;56.61
43772;HTU21D;59066;54.782;32.024;2023-03-01T09:14:10;1.43;57.51
43772;HTU21D;59066;54.782;32.024;2023-03-01T09:16:38;1.49;57.08
43772;HTU21D;59066;54.782;32.024;2023-03-01T09:19:07;1.56;56.73
43772;HTU21D;59066;54.782;32.024;2023-03-01T09:21:34;1.60;57.06
43772;HTU21D;59066;54.782;32.024;2023-03-01T09:24:13;1.69;57.95
43772;HTU21D;59066;54.782;32.024;2023-03-01T09:26:40;1.92;58.85
43772;HTU21D;59066;54.782;32.024;2023-03-01T09:29:08;2.11;59.06
43772;HTU21D;59066;54.782;32.024;2023-03-01T09:31:37;1.92;55.58
43772;HTU21D;59066;54.782;32.024;2023-03-01T09:34:05;1.78;56.34
43772;HTU21D;59066;54.782;32.024;2023-03-01T09:36:33;1.84;56.61
43772;HTU21D;59066;54.782;32.024;2023-03-01T09:39:01;1.90;57.58
43772;HTU21D;59066;54.782;32.024;2023-03-01T09:41:46;1.69;56.93
43772;HTU21D;59066;54.782;32.024;2023-03-01T09:46:59;1.72;58.55
43772;HTU21D;59066;54.782;32.024;2023-03-01T09:49:29;1.65;56.26
43772;HTU21D;59066;54.782;32.024;2023-03-01T09:52:03;1.72;54.66
43772;HTU21D;59066;54.782;32.024;2023-03-01T09:54:31;1.86;56.32
43772;HTU21D;59066;54.782;32.024;2023-03-01T09:57:30;1.85;54.61
43772;HTU21D;59066;54.782;32.024;2023-03-01T10:02:49;1.99;54.59
43772;HTU21D;59066;54.782;32.024;2023-03-01T10:05:36;2.34;55.05
43772;HTU21D;59066;54.782;32.024;2023-03-01T10:10:44;2.53;54.46
43772;HTU21D;59066;54.782;32.024;2023-03-01T10:13:42;2.54;53.30
43772;HTU21D;59066;54.782;32.024;2023-03-01T10:16:22;2.41;53.81
43772;HTU21D;59066;54.782;32.024;2023-03-01T10:18:57;2.28;53.61
43772;HTU21D;59066;54.782;32.024;2023-03-01T10:21:26;2.08;52.80
43772;HTU21D;59066;54.782;32.024;2023-03-01T10:24:10;2.06;53.65
43772;HTU21D;59066;54.782;32.024;2023-03-01T10:26:55;2.08;53.78
43772;HTU21D;59066;54.782;32.024;2023-03-01T10:29:29;2.13;53.87
43772;HTU21D;59066;54.782;32.024;2023-03-01T10:31:58;2.10;53.17
43772;HTU21D;59066;54.782;32.024;2023-03-01T10:34:32;2.03;51.91
43772;HTU21D;59066;54.782;32.024;2023-03-01T10:37:12;1.95;52.50
43772;HTU21D;59066;54.782;32.024;2023-03-01T10:39:55;2.24;52.82
43772;HTU21D;59066;54.782;32.024;2023-03-01T10:42:30;2.81;51.43
43772;HTU21D;59066;54.782;32.024;2023-03-01T10:45:34;3.03;52.94
43772;HTU21D;59066;54.782;32.024;2023-03-01T10:48:24;2.97;51.31
43772;HTU21D;59066;54.782;32.024;2023-03-01T10:53:31;2.79;50.63
43772;HTU21D;59066;54.782;32.024;2023-03-01T10:56:05;2.67;51.30
43772;HTU21D;59066;54.782;32.024;2023-03-01T10:58:34;2.55;50.50
43772;HTU21D;59066;54.782;32.024;2023-03-01T11:06:34;2.47;50.52
43772;HTU21D;59066;54.782;32.024;2023-03-01T11:09:22;2.22;50.38
43772;HTU21D;59066;54.782;32.024;2023-03-01T11:11:55;2.46;51.00
43772;HTU21D;59066;54.782;32.024;2023-03-01T11:14:30;3.25;51.06
43772;HTU21D;59066;54.782;32.024;2023-03-01T11:17:23;3.71;49.76
43772;HTU21D;59066;54.782;32.024;2023-03-01T11:22:54;3.72;47.94
43772;HTU21D;59066;54.782;32.024;2023-03-01T11:25:43;3.76;47.63
43772;HTU21D;59066;54.782;32.024;2023-03-01T11:28:15;4.03;47.58
43772;HTU21D;59066;54.782;32.024;2023-03-01T11:30:47;3.97;47.49
43772;HTU21D;59066;54.782;32.024;2023-03-01T11:33:41;3.64;47.12
43772;HTU21D;59066;54.782;32.024;2023-03-01T11:38:41;3.15;46.86
43772;HTU21D;59066;54.782;32.024;2023-03-01T11:41:18;3.06;47.34
43772;HTU21D;59066;54.782;32.024;2023-03-01T11:44:14;3.27;46.99
43772;HTU21D;59066;54.782;32.024;2023-03-01T11:50:02;3.43;45.16
43772;HTU21D;59066;54.782;32.024;2023-03-01T12:03:51;3.11;45.61
43772;HTU21D;59066;54.782;32.024;2023-03-01T12:06:50;3.69;43.61
43772;HTU21D;59066;54.782;32.024;2023-03-01T12:09:47;4.32;44.27
43772;HTU21D;59066;54.782;32.024;2023-03-01T12:15:30;3.70;43.92
43772;HTU21D;59066;54.782;32.024;2023-03-01T12:26:13;6.55;42.70
43772;HTU21D;59066;54.782;32.024;2023-03-01T12:28:55;6.64;45.25
43772;HTU21D;59066;54.782;32.024;2023-03-01T12:31:52;6.86;48.61
43772;HTU21D;59066;54.782;32.024;2023-03-01T12:40:13;7.45;49.28
43772;HTU21D;59066;54.782;32.024;2023-03-01T12:51:23;4.63;52.61
43772;HTU21D;59066;54.782;32.024;2023-03-01T12:53:54;4.20;53.47
43772;HTU21D;59066;54.782;32.024;2023-03-01T12:56:25;3.89;53.88
43772;HTU21D;59066;54.782;32.024;2023-03-01T13:01:52;3.29;52.59
43772;HTU21D;59066;54.782;32.024;2023-03-01T13:05:05;3.08;52.56
43772;HTU21D;59066;54.782;32.024;2023-03-01T13:10:48;2.80;53.73
43772;HTU21D;59066;54.782;32.024;2023-03-01T13:13:22;2.80;55.42
43772;HTU21D;59066;54.782;32.024;2023-03-01T13:15:50;2.82;56.23
43772;HTU21D;59066;54.782;32.024;2023-03-01T13:20:49;2.59;56.08
43772;HTU21D;59066;54.782;32.024;2023-03-01T13:39:00;1.80;56.83
43772;HTU21D;59066;54.782;32.024;2023-03-01T13:44:33;1.84;57.24
43772;HTU21D;59066;54.782;32.024;2023-03-01T13:47:14;1.86;58.21
43772;HTU21D;59066;54.782;32.024;2023-03-01T13:55:21;2.09;55.81
43772;HTU21D;59066;54.782;32.024;2023-03-01T13:57:57;1.98;55.01
43772;HTU21D;59066;54.782;32.024;2023-03-01T14:00:38;1.78;56.36
43772;HTU21D;59066;54.782;32.024;2023-03-01T14:03:14;1.78;55.95
43772;HTU21D;59066;54.782;32.024;2023-03-01T14:05:57;2.15;57.32
43772;HTU21D;59066;54.782;32.024;2023-03-01T14:08:38;2.65;56.87
43772;HTU21D;59066;54.782;32.024;2023-03-01T14:16:58;2.01;55.58
43772;HTU21D;59066;54.782;32.024;2023-03-01T14:19:29;1.88;56.23
43772;HTU21D;59066;54.782;32.024;2023-03-01T14:22:17;1.73;55.13
43772;HTU21D;59066;54.782;32.024;2023-03-01T14:24:57;1.47;54.47
43772;HTU21D;59066;54.782;32.024;2023-03-01T14:27:33;1.32;55.32
43772;HTU21D;59066;54.782;32.024;2023-03-01T14:32:39;1.21;54.62
43772;HTU21D;59066;54.782;32.024;2023-03-01T14:35:25;1.17;54.99
43772;HTU21D;59066;54.782;32.024;2023-03-01T14:37:53;1.07;54.93
43772;HTU21D;59066;54.782;32.024;2023-03-01T14:40:33;1.17;55.11
43772;HTU21D;59066;54.782;32.024;2023-03-01T14:43:09;1.17;54.39
43772;HTU21D;59066;54.782;32.024;2023-03-01T14:45:38;1.38;54.41
43772;HTU21D;59066;54.782;32.024;2023-03-01T14:48:06;1.72;54.25
43772;HTU21D;59066;54.782;32.024;2023-03-01T14:50:35;1.95;53.35
43772;HTU21D;59066;54.782;32.024;2023-03-01T14:53:05;1.72;53.37
43772;HTU21D;59066;54.782;32.024;2023-03-01T14:55:35;1.55;53.47
43772;HTU21D;59066;54.782;32.024;2023-03-01T14:58:05;1.38;53.89
43772;HTU21D;59066;54.782;32.024;2023-03-01T15:00:34;1.24;53.90
43772;HTU21D;59066;54.782;32.024;2023-03-01T15:03:14;1.12;53.91
43772;HTU21D;59066;54.782;32.024;2023-03-01T15:05:44;1.10;53.97
43772;HTU21D;59066;54.782;32.024;2023-03-01T15:08:21;1.05;54.01
43772;HTU21D;59066;54.782;32.024;2023-03-01T15:11:15;0.95;54.13
43772;HTU21D;59066;54.782;32.024;2023-03-01T15:13:44;0.89;54.26
43772;HTU21D;59066;54.782;32.024;2023-03-01T15:16:17;0.87;54.26
43772;HTU21D;59066;54.782;32.024;2023-03-01T15:18:51;0.81;54.34
43772;HTU21D;59066;54.782;32.024;2023-03-01T15:21:24;0.73;54.61
43772;HTU21D;59066;54.782;32.024;2023-03-01T15:26:53;0.66;54.87
43772;HTU21D;59066;54.782;32.024;2023-03-01T15:29:26;0.64;54.81
43772;HTU21D;59066;54.782;32.024;2023-03-01T15:32:05;0.59;54.84
43772;HTU21D;59066;54.782;32.024;2023-03-01T15:34:37;0.54;54.68
43772;HTU21D;59066;54.782;32.024;2023-03-01T15:37:15;0.52;54.71
43772;HTU21D;59066;54.782;32.024;2023-03-01T15:39:56;0.53;55.00
43772;HTU21D;59066;54.782;32.024;2023-03-01T15:47:50;0.49;55.27
43772;HTU21D;59066;54.782;32.024;2023-03-01T15:50:22;0.45;55.51
43772;HTU21D;59066;54.782;32.024;2023-03-01T15:52:50;0.45;55.58
43772;HTU21D;59066;54.782;32.024;2023-03-01T15:57:48;0.37;55.54
43772;HTU21D;59066;54.782;32.024;2023-03-01T16:00:16;0.34;55.90
43772;HTU21D;59066;54.782;32.024;2023-03-01T16:02:45;0.36;55.81
43772;HTU21D;59066;54.782;32.024;2023-03-01T16:05:26;0.37;55.84
43772;HTU21D;59066;54.782;32.024;2023-03-01T16:07:54;0.35;55.91
43772;HTU21D;59066;54.782;32.024;2023-03-01T16:10:22;0.36;55.99
43772;HTU21D;59066;54.782;32.024;2023-03-01T16:12:50;0.38;56.12
43772;HTU21D;59066;54.782;32.024;2023-03-01T16:15:30;0.37;56.39
43772;HTU21D;59066;54.782;32.024;2023-03-01T16:17:59;0.34;56.06
43772;HTU21D;59066;54.782;32.024;2023-03-01T16:20:27;0.33;56.30
43772;HTU21D;59066;54.782;32.024;2023-03-01T16:23:00;0.32;56.36
43772;HTU21D;59066;54.782;32.024;2023-03-01T16:25:28;0.34;56.60
43772;HTU21D;59066;54.782;32.024;2023-03-01T16:27:56;0.33;56.45
43772;HTU21D;59066;54.782;32.024;2023-03-01T16:30:26;0.31;56.27
43772;HTU21D;59066;54.782;32.024;2023-03-01T16:32:53;0.29;56.39
43772;HTU21D;59066;54.782;32.024;2023-03-01T16:35:21;0.31;56.15
43772;HTU21D;59066;54.782;32.024;2023-03-01T16:37:49;0.28;56.43
43772;HTU21D;59066;54.782;32.024;2023-03-01T16:40:21;0.28;56.37
43772;HTU21D;59066;54.782;32.024;2023-03-01T16:42:50;0.28;56.36
43772;HTU21D;59066;54.782;32.024;2023-03-01T16:45:19;0.25;56.47
43772;HTU21D;59066;54.782;32.024;2023-03-01T16:47:54;0.28;56.47
43772;HTU21D;59066;54.782;32.024;2023-03-01T16:50:22;0.25;56.45
43772;HTU21D;59066;54.782;32.024;2023-03-01T16:52:50;0.28;56.44
43772;HTU21D;59066;54.782;32.024;2023-03-01T16:55:18;0.21;56.59
43772;HTU21D;59066;54.782;32.024;2023-03-01T16:57:45;0.22;56.43
43772;HTU21D;59066;54.782;32.024;2023-03-01T17:00:14;0.21;56.46
43772;HTU21D;59066;54.782;32.024;2023-03-01T17:02:41;0.22;56.40
43772;HTU21D;59066;54.782;32.024;2023-03-01T17:05:10;0.24;56.37
43772;HTU21D;59066;54.782;32.024;2023-03-01T17:07:39;0.22;56.26
43772;HTU21D;59066;54.782;32.024;2023-03-01T17:10:08;0.24;56.39
43772;HTU21D;59066;54.782;32.024;2023-03-01T17:12:37;0.28;56.39
43772;HTU21D;59066;54.782;32.024;2023-03-01T17:15:05;0.28;56.36
43772;HTU21D;59066;54.782;32.024;2023-03-01T17:17:33;0.28;56.39
43772;HTU21D;59066;54.782;32.024;2023-03-01T17:20:01;0.32;56.29
43772;HTU21D;59066;54.782;32.024;2023-03-01T17:22:30;0.31;56.29
43772;HTU21D;59066;54.782;32.024;2023-03-01T17:24:58;0.31;56.27
43772;HTU21D;59066;54.782;32.024;2023-03-01T17:27:25;0.31;56.14
43772;HTU21D;59066;54.782;32.024;2023-03-01T17:29:53;0.31;55.84
43772;HTU21D;59066;54.782;32.024;2023-03-01T17:32:20;0.35;55.79
43772;HTU21D;59066;54.782;32.024;2023-03-01T17:34:48;0.34;55.76
43772;HTU21D;59066;54.782;32.024;2023-03-01T17:37:15;0.35;55.77
43772;HTU21D;59066;54.782;32.024;2023-03-01T17:39:42;0.33;55.80
43772;HTU21D;59066;54.782;32.024;2023-03-01T17:42:10;0.36;55.71